Tropical Cyclones
[Index]
Main Index Home Page Stock Weather Photos Extreme Storms Discussion Storm News and Storm Chasing Reports Tropical Cyclones / Hurricanes / Typhoons Weather Data and Links Wild Fires / Bushfires Weather Observation Techniques Weather Picture Catalogue Tornado Pictures and Reports Stock Video Footage and DVDs for sale
Season 1985-1986 Tropical Cyclone ERINESTA Track Map
Season 1985-1986 Summaries: [BoM-AU] [JTWC-AU] [JTWC-SIO] [JTWC-SPAC] [JTWC-SH]
<<- Previous TC | JTWC 1985-1986 Season | Next TC ->>

click for intensity scale information  Lat/long Grid: Show Hide

 Date Labels: Show Hide

Joint Typhoon Warning Centre Cyclone Data

Name: ERINESTA

30 Jan 1986 00:00 UTC to 11 Feb 1986 00:00 UTC

    date/time    lat    long     hPa   cat  kts
1986-01-30 00   11.9    66.8                  25          
1986-01-30 06   12.0    65.8                  25          
1986-01-30 12   12.1    65.1                  25          
1986-01-30 18   12.1    64.7                  25          
1986-01-31 00   12.0    64.2                  30          
1986-01-31 06   11.9    63.7                  30          
1986-01-31 12   11.8    63.2                  35          
1986-01-31 18   11.7    62.7                  35          
1986-02-01 00   11.7    62.2            1     40          
1986-02-01 06   11.8    61.7            1     50          
1986-02-01 12   12.0    61.2            2     60          
1986-02-01 18   12.2    60.8            2     65          
1986-02-02 00   12.4    60.3            3     75          
1986-02-02 06   12.7    59.7            3     85          
1986-02-02 12   13.1    59.1            3     95          
1986-02-02 18   13.5    58.6            4    100          
1986-02-03 00   13.9    58.0            4    105          
1986-02-03 06   14.3    57.3            4    110          
1986-02-03 12   14.6    56.6            4    110          
1986-02-03 18   14.8    56.1            4    110          
1986-02-04 00   15.1    55.5            4    110          
1986-02-04 06   15.4    54.9            4    110          
1986-02-04 12   15.7    54.4            4    115          
1986-02-04 18   16.0    54.1            4    115          
1986-02-05 00   16.3    53.9            4    115          
1986-02-05 06   16.6    53.7            4    110          
1986-02-05 12   17.0    53.4            4    105          
1986-02-05 18   17.4    53.3            4    100          
1986-02-06 00   17.8    53.3            3     95          
1986-02-06 06   18.2    53.3            3     90          
1986-02-06 12   18.6    53.3            3     90          
1986-02-06 18   19.0    53.3            3     90          
1986-02-07 00   19.4    53.4            3     85          
1986-02-07 06   19.8    53.4            3     85          
1986-02-07 12   20.3    53.5            3     80          
1986-02-07 18   20.8    53.5            3     80          
1986-02-08 00   21.3    53.6            3     75          
1986-02-08 06   22.1    53.6            3     75          
1986-02-08 12   23.1    53.6            2     70          
1986-02-08 18   24.2    53.4            2     70          
1986-02-09 00   25.5    53.3            2     65          
1986-02-09 06   27.1    53.5            2     60          
1986-02-09 12   28.7    53.9            2     55          
1986-02-09 18   30.1    54.4            2     55          
1986-02-10 00   31.4    54.9            1     50          
1986-02-10 06   32.5    55.3            1     45          
1986-02-10 12   33.6    55.8            1     40          
1986-02-10 18   34.6    56.4                  35          
1986-02-11 00   35.6    57.0                  35          
Winds are 1-min average.

Tropical cyclone tracks developed by Michael Bath using data from the Joint Typhoon Warning Centre Best Tracks and Google Maps.


[Australian Severe Weather index] [Copyright Notice] [Email Contacts] [Search This Site] [Privacy Policy]
Document: tropical_cyclone_erinesta.htm Updated: 18 September 2016